Time;durP1;ratioP1;P1;durP2;ratioP2;P2;SDS_P1;SDS_P2;PMS_P1;PMS_P2;Temp;Humidity;BMP_temperature;BMP_pressure;BME280_temperature;BME280_humidity;BME280_pressure;Samples;Min_cycle;Max_cycle;Signal;HPM_P1;HPM_P2
2023/05/23 00:01:17;;;;;;;13.40;8.68;;;;;;;17.13;81.56;101188.53;4977076;28;20037;-62
2023/05/23 00:03:43;;;;;;;13.95;9.13;;;;;;;17.09;81.53;101193.03;4983744;28;20033;-62
2023/05/23 00:06:09;;;;;;;10.45;8.30;;;;;;;17.05;81.56;101200.97;4979835;28;20816;-62
2023/05/23 00:08:34;;;;;;;10.27;8.02;;;;;;;17.03;81.06;101198.41;4983063;28;20049;-62
2023/05/23 00:10:59;;;;;;;11.70;7.82;;;;;;;17.00;81.12;101201.13;4975429;28;20459;-61
2023/05/23 00:13:25;;;;;;;10.88;7.95;;;;;;;16.95;81.15;101213.41;4980189;28;20117;-63
2023/05/23 00:15:51;;;;;;;12.65;8.63;;;;;;;16.91;81.12;101211.81;4982551;28;20041;-63
2023/05/23 00:18:17;;;;;;;12.18;8.05;;;;;;;16.90;81.33;101211.84;4971941;28;20034;-63
2023/05/23 00:20:42;;;;;;;10.20;7.45;;;;;;;16.85;81.03;101210.22;4980194;28;20462;-62
2023/05/23 00:23:09;;;;;;;10.73;8.38;;;;;;;16.81;81.29;101207.72;4979971;28;20526;-62
2023/05/23 00:25:35;;;;;;;10.60;8.48;;;;;;;16.74;81.40;101217.44;4974232;28;20046;-62
2023/05/23 00:28:02;;;;;;;13.77;8.40;;;;;;;16.67;81.55;101213.28;4981324;28;20030;-63
2023/05/23 00:30:30;;;;;;;14.88;8.95;;;;;;;16.61;81.70;101209.97;4980748;28;20458;-62
2023/05/23 00:32:55;;;;;;;12.15;8.65;;;;;;;16.54;81.89;101208.41;4972999;28;20096;-63
2023/05/23 00:35:22;;;;;;;12.18;9.32;;;;;;;16.50;82.25;101207.66;4984836;28;20050;-62
2023/05/23 00:37:51;;;;;;;12.00;8.75;;;;;;;16.43;82.35;101208.69;4977076;28;20656;-63
2023/05/23 00:40:20;;;;;;;13.35;9.85;;;;;;;16.39;82.84;101203.56;4976543;28;20035;-61
2023/05/23 00:42:46;;;;;;;13.35;10.05;;;;;;;16.37;82.28;101206.25;4980844;28;20026;-62
2023/05/23 00:45:12;;;;;;;15.00;9.60;;;;;;;16.32;82.56;101208.94;4979793;28;20034;-63
2023/05/23 00:47:41;;;;;;;16.65;11.30;;;;;;;16.31;82.44;101209.00;4977518;28;20086;-62
2023/05/23 00:50:10;;;;;;;14.40;10.27;;;;;;;16.26;82.92;101210.88;4978118;28;20038;-62
2023/05/23 00:52:37;;;;;;;14.95;10.65;;;;;;;16.25;83.09;101211.75;4982713;28;20042;-62
2023/05/23 00:55:03;;;;;;;16.40;10.60;;;;;;;16.20;83.22;101209.28;4977749;28;20022;-62
2023/05/23 00:57:29;;;;;;;12.23;9.93;;;;;;;16.16;83.24;101215.44;4982811;28;20038;-63
2023/05/23 00:59:54;;;;;;;15.68;10.57;;;;;;;16.15;83.91;101210.25;4979839;28;20054;-62
2023/05/23 01:02:20;;;;;;;16.83;11.23;;;;;;;16.14;83.80;101213.78;4973585;28;20045;-63
2023/05/23 01:04:53;;;;;;;15.02;10.70;;;;;;;16.10;83.57;101214.72;4976770;28;20057;-63
2023/05/23 01:07:18;;;;;;;17.35;11.15;;;;;;;16.14;82.88;101211.16;4979276;28;20041;-63
2023/05/23 01:09:44;;;;;;;13.43;10.27;;;;;;;16.13;82.43;101199.88;4979443;28;20446;-61
2023/05/23 01:12:09;;;;;;;15.00;11.48;;;;;;;16.10;82.77;101207.78;4973422;28;20046;-61
2023/05/23 01:14:40;;;;;;;15.23;11.70;;;;;;;16.09;82.87;101208.66;4978080;28;20042;-63
2023/05/23 01:17:23;;;;;;;16.42;11.77;;;;;;;16.04;83.00;101207.06;5004414;28;20626;-62
2023/05/23 01:20:03;;;;;;;15.98;11.60;;;;;;;16.02;83.53;101207.09;4985721;28;20037;-62
2023/05/23 01:22:40;;;;;;;17.20;11.95;;;;;;;16.04;83.23;101220.94;4983559;28;20041;-62
2023/05/23 01:25:32;;;;;;;15.95;11.93;;;;;;;16.09;82.98;101210.41;4976320;28;20851;-62
2023/05/23 01:28:02;;;;;;;17.35;12.13;;;;;;;16.14;82.99;101213.78;4979906;28;20026;-62
2023/05/23 01:30:30;;;;;;;17.73;12.55;;;;;;;16.20;83.02;101214.50;4980595;28;20027;-62
2023/05/23 01:32:58;;;;;;;18.75;12.73;;;;;;;16.27;82.41;101217.78;4976743;28;20039;-62
2023/05/23 01:35:25;;;;;;;18.40;11.27;;;;;;;16.33;81.43;101212.41;4980359;28;20042;-63
2023/05/23 01:37:52;;;;;;;13.48;9.52;;;;;;;16.43;80.51;101211.31;4983979;28;20511;-62
2023/05/23 01:40:18;;;;;;;14.90;9.70;;;;;;;16.50;80.29;101210.25;4979551;28;20146;-62
2023/05/23 01:42:43;;;;;;;17.33;10.10;;;;;;;16.53;80.26;101209.31;4981192;28;20580;-63
2023/05/23 01:45:10;;;;;;;14.38;10.25;;;;;;;16.54;80.19;101213.63;4983203;28;20536;-62
2023/05/23 01:47:37;;;;;;;14.40;9.82;;;;;;;16.56;79.99;101212.69;4974971;28;20049;-63
2023/05/23 01:50:03;;;;;;;16.75;10.13;;;;;;;16.56;80.67;101209.25;4981471;28;20037;-63
2023/05/23 01:52:28;;;;;;;16.13;11.07;;;;;;;16.57;80.82;101218.78;4980962;28;20038;-63
2023/05/23 01:54:55;;;;;;;16.30;12.32;;;;;;;16.58;81.25;101216.13;4981972;28;20050;-63
2023/05/23 01:57:21;;;;;;;14.77;10.77;;;;;;;16.58;80.70;101215.28;4978110;28;20034;-62
2023/05/23 01:59:47;;;;;;;19.17;12.05;;;;;;;16.58;81.04;101217.88;4980497;28;20064;-63
2023/05/23 02:02:12;;;;;;;18.00;12.95;;;;;;;16.58;80.88;101221.34;4980935;28;20769;-62
2023/05/23 02:04:37;;;;;;;17.88;11.82;;;;;;;16.60;80.87;101216.94;4987231;28;20092;-62
2023/05/23 02:07:03;;;;;;;16.88;12.85;;;;;;;16.59;81.34;101224.81;4983074;28;20049;-62
2023/05/23 02:09:28;;;;;;;18.70;12.73;;;;;;;16.58;80.87;101223.09;4983669;28;20038;-63
2023/05/23 02:11:54;;;;;;;15.05;10.90;;;;;;;16.56;81.04;101224.91;4984668;28;20038;-62
2023/05/23 02:14:20;;;;;;;16.58;10.30;;;;;;;16.54;80.49;101219.72;4983914;28;20452;-61
2023/05/23 02:16:45;;;;;;;12.13;8.75;;;;;;;16.52;79.72;101223.25;4982862;28;21048;-62
2023/05/23 02:19:10;;;;;;;8.25;6.88;;;;;;;16.51;78.70;101222.41;4983941;28;20061;-62
2023/05/23 02:21:37;;;;;;;10.05;6.82;;;;;;;16.46;78.67;101232.09;4986664;28;20030;-62
2023/05/23 02:24:02;;;;;;;9.70;6.70;;;;;;;16.44;78.44;101236.50;4980114;28;20663;-62
2023/05/23 02:26:28;;;;;;;8.00;5.85;;;;;;;16.40;77.74;101237.47;4986241;28;20038;-61
2023/05/23 02:28:53;;;;;;;9.52;6.25;;;;;;;16.37;77.86;101245.38;4990037;28;20442;-61
2023/05/23 02:31:19;;;;;;;7.50;5.43;;;;;;;16.33;77.36;101246.34;4983321;28;20066;-61
2023/05/23 02:33:44;;;;;;;7.75;4.53;;;;;;;16.31;77.61;101251.59;4978451;28;20018;-61
2023/05/23 02:36:10;;;;;;;5.53;4.30;;;;;;;16.26;76.77;101235.22;4984103;28;20046;-62
2023/05/23 02:38:35;;;;;;;5.57;4.45;;;;;;;16.24;77.30;101250.03;4983690;28;20070;-61
2023/05/23 02:41:00;;;;;;;5.88;4.15;;;;;;;16.23;76.48;101250.94;4983797;28;20692;-62
2023/05/23 02:43:26;;;;;;;6.13;4.30;;;;;;;16.23;76.53;101252.69;4983250;28;20049;-62
2023/05/23 02:45:52;;;;;;;5.18;4.10;;;;;;;16.21;76.51;101255.31;5014503;28;20042;-63
2023/05/23 02:48:17;;;;;;;5.93;4.35;;;;;;;16.20;76.79;101248.41;4980081;28;20052;-63
2023/05/23 02:50:43;;;;;;;5.38;3.80;;;;;;;16.19;76.55;101251.88;4980999;28;20129;-62
2023/05/23 02:53:08;;;;;;;4.32;3.72;;;;;;;16.20;76.87;101251.00;4989063;28;20525;-62
2023/05/23 02:55:33;;;;;;;7.35;4.22;;;;;;;16.21;77.17;101254.44;4980417;28;20558;-62
2023/05/23 02:57:59;;;;;;;6.10;4.13;;;;;;;16.22;77.27;101266.59;4982912;28;20387;-62
2023/05/23 03:00:24;;;;;;;4.95;3.85;;;;;;;16.21;76.53;101247.47;4982095;28;20030;-62
2023/05/23 03:02:50;;;;;;;5.35;4.10;;;;;;;16.22;76.51;101261.38;4977325;28;20532;-62
2023/05/23 03:05:15;;;;;;;7.53;4.00;;;;;;;16.22;76.79;101261.38;4985979;28;20042;-62
2023/05/23 03:07:41;;;;;;;7.30;4.60;;;;;;;16.21;76.64;101254.44;4979809;28;20836;-63
2023/05/23 03:10:07;;;;;;;7.10;4.47;;;;;;;16.22;76.74;101253.56;4975657;28;20101;-62
2023/05/23 03:12:32;;;;;;;6.13;4.05;;;;;;;16.22;76.94;101250.97;4977913;28;20049;-60
2023/05/23 03:14:58;;;;;;;6.10;4.18;;;;;;;16.22;76.77;101251.81;4978146;28;20445;-62
2023/05/23 03:17:24;;;;;;;7.65;4.10;;;;;;;16.23;77.00;101255.28;4973855;28;20038;-62
2023/05/23 03:19:50;;;;;;;7.53;4.25;;;;;;;16.22;77.31;101258.78;4973671;28;20046;-62
2023/05/23 03:22:16;;;;;;;9.98;4.72;;;;;;;16.22;77.57;101261.38;4982310;28;20036;-62
2023/05/23 03:24:41;;;;;;;6.00;4.22;;;;;;;16.22;77.54;101266.59;4975880;28;20097;-62
2023/05/23 03:27:07;;;;;;;5.78;4.30;;;;;;;16.22;77.21;101257.03;4977175;28;20030;-63
2023/05/23 03:29:32;;;;;;;7.45;4.90;;;;;;;16.21;77.04;101252.69;4978441;28;20045;-62
2023/05/23 03:31:58;;;;;;;8.35;4.60;;;;;;;16.20;76.95;101264.06;4974330;28;20042;-62
2023/05/23 03:34:25;;;;;;;8.65;5.03;;;;;;;16.22;77.32;101271.81;4979534;28;21944;-62
2023/05/23 03:36:51;;;;;;;5.95;4.60;;;;;;;16.21;77.49;101270.97;4976444;28;20057;-63
2023/05/23 03:39:16;;;;;;;8.00;4.75;;;;;;;16.21;76.95;101270.09;4986494;28;20652;-63
2023/05/23 03:41:42;;;;;;;8.30;5.78;;;;;;;16.21;76.85;101275.31;4976061;28;20045;-62
2023/05/23 03:44:07;;;;;;;10.98;6.38;;;;;;;16.20;77.32;101276.22;4979534;28;20140;-63
2023/05/23 03:46:32;;;;;;;7.60;5.88;;;;;;;16.18;77.36;101291.91;4978200;28;20577;-62
2023/05/23 03:48:58;;;;;;;9.68;6.18;;;;;;;16.16;77.94;101285.00;4978209;28;20041;-62
2023/05/23 03:51:23;;;;;;;11.20;7.00;;;;;;;16.12;79.14;101289.44;4982724;28;20076;-62
2023/05/23 03:53:49;;;;;;;10.48;7.22;;;;;;;16.07;78.67;101288.69;4979495;28;20529;-62
2023/05/23 03:56:14;;;;;;;13.27;7.45;;;;;;;16.05;79.42;101292.22;4975727;28;20034;-62
2023/05/23 03:58:39;;;;;;;10.95;7.43;;;;;;;15.99;79.94;101295.84;4980645;28;20031;-62
2023/05/23 04:01:05;;;;;;;9.20;6.85;;;;;;;15.96;80.48;101292.44;4979287;28;20040;-62
2023/05/23 04:03:31;;;;;;;10.85;7.80;;;;;;;15.90;81.32;101301.25;4981252;28;20126;-62
2023/05/23 04:06:00;;;;;;;12.55;8.68;;;;;;;15.80;82.89;101302.31;4979648;28;20041;-62
2023/05/23 04:08:26;;;;;;;13.25;7.68;;;;;;;15.69;83.80;101306.91;4979578;28;20038;-62
2023/05/23 04:10:51;;;;;;;12.20;7.68;;;;;;;15.58;84.74;101314.88;4978087;28;20732;-62
2023/05/23 04:13:17;;;;;;;10.55;7.95;;;;;;;15.52;85.24;101308.97;4978093;28;20741;-62
2023/05/23 04:15:43;;;;;;;12.43;8.63;;;;;;;15.46;85.55;101311.69;4978905;28;20054;-62
2023/05/23 04:18:09;;;;;;;13.73;9.52;;;;;;;15.44;85.65;101314.31;4977322;28;20069;-62
2023/05/23 04:20:34;;;;;;;15.05;9.25;;;;;;;15.42;86.57;101316.09;4979267;28;20438;-62
2023/05/23 04:22:59;;;;;;;13.98;9.57;;;;;;;15.43;86.82;101317.81;4977466;28;20484;-63
2023/05/23 04:25:25;;;;;;;12.98;10.10;;;;;;;15.44;86.87;101316.91;4970346;28;20038;-62
2023/05/23 04:27:53;;;;;;;13.50;10.23;;;;;;;15.42;87.38;101307.41;4979026;28;20129;-63
2023/05/23 04:30:19;;;;;;;17.70;10.80;;;;;;;15.41;87.77;101322.19;4982580;28;20049;-63
2023/05/23 04:32:44;;;;;;;15.80;10.52;;;;;;;15.36;87.96;101318.81;5005374;28;20084;-63
2023/05/23 04:35:10;;;;;;;17.45;10.32;;;;;;;15.37;88.16;101317.94;4977262;28;20133;-62
2023/05/23 04:37:36;;;;;;;21.17;11.68;;;;;;;15.37;88.44;101319.69;4980361;28;20045;-62
2023/05/23 04:40:02;;;;;;;15.43;11.45;;;;;;;15.36;88.73;101325.78;4977518;28;20037;-62
2023/05/23 04:42:28;;;;;;;15.75;10.52;;;;;;;15.33;88.75;101321.47;4973758;28;20034;-62
2023/05/23 04:44:56;;;;;;;13.18;10.02;;;;;;;15.33;88.22;101325.81;4984535;28;20046;-62
2023/05/23 04:47:23;;;;;;;14.55;10.35;;;;;;;15.30;88.38;101323.28;4978002;28;20937;-62
2023/05/23 04:49:48;;;;;;;15.45;10.15;;;;;;;15.31;88.05;101325.00;4978136;28;20111;-62
2023/05/23 04:52:14;;;;;;;14.02;9.30;;;;;;;15.33;87.87;101324.09;4984034;28;20038;-63
2023/05/23 04:54:43;;;;;;;13.02;9.10;;;;;;;15.35;87.29;101322.31;4983022;28;20682;-62
2023/05/23 04:57:09;;;;;;;13.70;8.48;;;;;;;15.40;86.68;101324.84;4982465;28;20137;-62
2023/05/23 04:59:34;;;;;;;10.55;7.35;;;;;;;15.46;84.88;101325.59;4985201;28;20081;-62
2023/05/23 05:02:00;;;;;;;9.55;6.25;;;;;;;15.53;83.93;101321.09;4983250;28;20122;-62
2023/05/23 05:04:25;;;;;;;9.27;6.30;;;;;;;15.63;82.82;101323.53;4985611;28;20076;-62
2023/05/23 05:06:51;;;;;;;9.48;5.40;;;;;;;15.69;82.41;101331.22;4988272;28;20038;-62
2023/05/23 05:09:17;;;;;;;11.55;6.20;;;;;;;15.72;81.66;101322.47;4981730;28;20070;-62
2023/05/23 05:11:42;;;;;;;10.57;6.57;;;;;;;15.75;81.87;101325.03;4984073;28;20046;-62
2023/05/23 05:14:08;;;;;;;13.18;6.47;;;;;;;15.76;82.36;101324.97;4976468;28;20141;-62
2023/05/23 05:16:33;;;;;;;11.05;7.30;;;;;;;15.75;82.29;101327.63;4978403;28;20133;-62
2023/05/23 05:18:58;;;;;;;12.18;7.22;;;;;;;15.76;82.11;101335.41;4981937;28;20053;-62
2023/05/23 05:21:24;;;;;;;10.40;7.70;;;;;;;15.75;83.00;101328.50;4980703;28;20053;-62
2023/05/23 05:23:50;;;;;;;12.13;8.48;;;;;;;15.75;83.56;101338.91;4984093;28;20044;-63
2023/05/23 05:26:15;;;;;;;13.60;9.05;;;;;;;15.73;83.63;101338.06;4980699;28;20084;-61
2023/05/23 05:28:41;;;;;;;10.98;7.93;;;;;;;15.69;84.16;101341.66;4985782;28;20598;-62
2023/05/23 05:31:06;;;;;;;12.73;8.52;;;;;;;15.69;84.53;101343.38;4980127;28;20030;-62
2023/05/23 05:33:35;;;;;;;22.35;8.30;;;;;;;15.69;84.01;101341.66;4980707;28;20034;-61
2023/05/23 05:36:03;;;;;;;15.50;9.02;;;;;;;15.68;84.72;101352.09;4984318;28;20050;-62
2023/05/23 05:38:29;;;;;;;19.60;9.10;;;;;;;15.66;84.85;101354.75;4986919;28;20658;-63
2023/05/23 05:40:54;;;;;;;14.95;9.00;;;;;;;15.65;84.98;101354.75;4985437;28;20042;-63
2023/05/23 05:43:20;;;;;;;14.10;9.07;;;;;;;15.67;85.27;101351.22;4981983;28;20061;-62
2023/05/23 05:45:45;;;;;;;13.38;8.70;;;;;;;15.69;84.82;101357.28;4979461;28;20034;-62
2023/05/23 05:48:11;;;;;;;13.57;8.63;;;;;;;15.70;84.19;101355.53;4979410;28;20673;-63
2023/05/23 05:50:36;;;;;;;12.93;8.23;;;;;;;15.72;84.10;101357.22;4978133;28;20053;-62
2023/05/23 05:53:02;;;;;;;13.63;7.45;;;;;;;15.78;83.75;101360.59;4970272;28;20672;-62
2023/05/23 05:55:28;;;;;;;13.02;7.10;;;;;;;15.82;82.72;101359.66;4994976;28;20689;-62
2023/05/23 05:57:53;;;;;;;12.00;8.25;;;;;;;15.88;82.74;101357.75;4992667;28;20117;-62
2023/05/23 06:00:19;;;;;;;14.73;7.95;;;;;;;15.91;81.39;101352.47;4984155;28;20980;-62
2023/05/23 06:02:50;;;;;;;13.13;7.50;;;;;;;15.98;81.07;101364.50;4980996;28;20042;-62
2023/05/23 06:05:15;;;;;;;11.55;7.35;;;;;;;15.97;81.40;101361.94;5015809;28;20125;-62
2023/05/23 06:07:46;;;;;;;11.98;8.13;;;;;;;15.97;81.07;101354.94;4985728;28;20371;-63
2023/05/23 06:10:12;;;;;;;10.10;7.18;;;;;;;15.97;81.27;101369.78;4984401;28;20396;-62
2023/05/23 06:12:38;;;;;;;11.38;7.65;;;;;;;15.97;81.39;101369.78;4982946;28;20018;-63
2023/05/23 06:15:05;;;;;;;14.20;7.55;;;;;;;15.96;81.68;101366.28;4981291;28;20042;-62
2023/05/23 06:17:30;;;;;;;12.35;7.45;;;;;;;15.96;80.89;101378.47;4982054;28;20042;-62
2023/05/23 06:19:55;;;;;;;11.30;8.32;;;;;;;15.94;81.66;101381.09;4979788;28;20163;-62
2023/05/23 06:22:21;;;;;;;15.35;9.38;;;;;;;15.90;81.59;101381.19;4984735;28;20125;-63
2023/05/23 06:24:46;;;;;;;16.20;9.57;;;;;;;15.86;82.04;101383.00;4976712;28;20030;-64
2023/05/23 06:27:12;;;;;;;14.00;8.93;;;;;;;15.85;82.18;101385.66;4983590;28;20045;-61
2023/05/23 06:29:38;;;;;;;17.50;10.68;;;;;;;15.84;81.75;101382.19;5010298;28;20530;-63
2023/05/23 06:32:03;;;;;;;14.75;11.55;;;;;;;15.82;82.16;101381.34;4980711;28;20060;-62
2023/05/23 06:34:29;;;;;;;16.83;10.98;;;;;;;15.84;82.05;101392.63;4978527;28;20789;-62
2023/05/23 06:36:54;;;;;;;16.85;11.70;;;;;;;15.86;82.10;101376.94;4981135;28;20498;-62
2023/05/23 06:39:20;;;;;;;19.67;12.18;;;;;;;15.80;81.79;101393.56;4978786;28;20061;-62
2023/05/23 06:41:46;;;;;;;18.15;11.25;;;;;;;15.75;82.27;101388.44;4981237;28;20488;-62
2023/05/23 06:44:11;;;;;;;16.77;11.20;;;;;;;15.79;82.16;101385.78;4977597;28;20038;-61
2023/05/23 06:46:36;;;;;;;18.23;11.05;;;;;;;15.79;82.71;101393.59;4977030;28;20046;-62
2023/05/23 06:49:02;;;;;;;17.00;10.60;;;;;;;15.81;82.30;101397.03;4973330;28;20038;-62
2023/05/23 06:51:27;;;;;;;18.33;10.65;;;;;;;15.79;82.34;101397.03;4976247;28;20748;-62
2023/05/23 06:53:55;;;;;;;22.80;10.65;;;;;;;15.86;82.16;101403.00;4977549;28;20459;-63
2023/05/23 06:56:21;;;;;;;15.00;10.50;;;;;;;15.87;81.89;101400.38;4973283;28;20039;-62
2023/05/23 06:58:46;;;;;;;14.45;10.32;;;;;;;15.96;81.91;101399.31;4976419;28;20440;-62
2023/05/23 07:01:12;;;;;;;18.83;10.90;;;;;;;16.03;81.30;101403.50;4976360;28;20037;-62
2023/05/23 07:03:40;;;;;;;14.35;9.35;;;;;;;16.00;81.02;101393.16;4981297;28;20097;-63
2023/05/23 07:06:06;;;;;;;12.60;8.68;;;;;;;16.00;80.90;101399.22;4982973;28;20038;-61
2023/05/23 07:08:31;;;;;;;14.95;9.55;;;;;;;15.98;81.33;101403.63;4980488;28;20041;-62
2023/05/23 07:10:57;;;;;;;15.85;9.60;;;;;;;15.96;80.90;101408.00;4981525;28;20043;-62
2023/05/23 07:13:22;;;;;;;15.68;9.15;;;;;;;15.94;80.79;101414.97;4979093;28;20038;-61
2023/05/23 07:15:47;;;;;;;14.95;9.05;;;;;;;15.93;81.67;101415.91;4976690;28;20053;-62
2023/05/23 07:18:13;;;;;;;11.68;8.68;;;;;;;15.95;81.29;101402.81;4978152;28;20041;-62
2023/05/23 07:20:38;;;;;;;14.05;8.38;;;;;;;15.95;81.08;101402.81;4976984;28;20108;-62
2023/05/23 07:23:03;;;;;;;12.98;8.20;;;;;;;15.98;81.28;101414.03;4981284;28;20054;-63
2023/05/23 07:25:29;;;;;;;15.98;8.77;;;;;;;15.97;81.03;101411.50;4979494;28;20037;-63
2023/05/23 07:27:54;;;;;;;13.57;8.82;;;;;;;16.02;80.40;101407.03;4978489;28;20567;-62
2023/05/23 07:30:21;;;;;;;13.40;9.20;;;;;;;16.06;79.79;101413.88;4978829;28;20790;-62
2023/05/23 07:32:47;;;;;;;16.38;8.43;;;;;;;16.14;79.11;101402.44;4975759;28;20030;-62
2023/05/23 07:35:13;;;;;;;13.13;8.20;;;;;;;16.40;78.06;101399.25;4979461;28;20038;-62
2023/05/23 07:37:39;;;;;;;12.55;8.15;;;;;;;16.63;77.53;101394.34;4981145;28;20065;-62
2023/05/23 07:40:05;;;;;;;11.70;7.47;;;;;;;16.75;76.75;101386.25;4974853;28;20400;-62
2023/05/23 07:42:30;;;;;;;12.15;7.88;;;;;;;16.84;76.40;101393.88;4983423;28;20111;-62
2023/05/23 07:44:56;;;;;;;15.55;8.00;;;;;;;16.86;74.97;101381.63;4976839;28;20117;-62
2023/05/23 07:47:23;;;;;;;14.18;7.60;;;;;;;16.85;75.52;101390.38;4982374;28;20126;-62
2023/05/23 07:49:50;;;;;;;11.25;7.13;;;;;;;16.83;75.98;101400.00;4982313;28;20085;-62
2023/05/23 07:52:16;;;;;;;11.85;6.90;;;;;;;16.81;75.10;101396.56;4977852;28;20038;-63
2023/05/23 07:54:42;;;;;;;8.95;6.68;;;;;;;16.73;74.82;101400.22;4980748;28;20054;-63
2023/05/23 07:57:08;;;;;;;8.48;6.28;;;;;;;16.68;75.23;101407.31;4978840;28;20073;-62
2023/05/23 07:59:34;;;;;;;10.90;6.80;;;;;;;16.71;75.17;101409.84;4980141;28;20042;-62
2023/05/23 08:01:59;;;;;;;8.80;6.38;;;;;;;16.64;75.92;101419.56;4980826;28;20038;-62
2023/05/23 08:04:24;;;;;;;10.18;5.90;;;;;;;16.49;76.53;101425.13;4980210;28;20062;-62
2023/05/23 08:06:50;;;;;;;9.73;6.30;;;;;;;16.40;77.07;101434.91;4979646;28;20141;-62
2023/05/23 08:09:15;;;;;;;12.88;7.13;;;;;;;16.41;77.32;101434.88;4978018;28;20074;-62
2023/05/23 08:11:41;;;;;;;12.15;6.90;;;;;;;16.50;76.35;101428.59;5004244;28;20642;-62
2023/05/23 08:14:06;;;;;;;11.88;6.93;;;;;;;16.64;76.39;101427.41;4976877;28;20034;-62
2023/05/23 08:16:33;;;;;;;10.85;6.65;;;;;;;16.59;76.17;101434.47;4974460;28;20045;-62
2023/05/23 08:18:59;;;;;;;10.27;6.53;;;;;;;16.60;75.85;101430.97;4978772;28;20093;-62
2023/05/23 08:21:24;;;;;;;12.48;6.75;;;;;;;16.56;76.54;101450.19;4979475;28;20137;-62
2023/05/23 08:23:50;;;;;;;12.18;6.25;;;;;;;16.63;76.10;101441.34;4979955;28;20104;-62
2023/05/23 08:26:15;;;;;;;12.63;6.90;;;;;;;16.65;76.18;101442.16;4978237;28;20721;-62
2023/05/23 08:28:40;;;;;;;9.50;7.13;;;;;;;16.69;76.00;101443.81;4984864;28;20050;-62
2023/05/23 08:31:06;;;;;;;9.65;6.40;;;;;;;16.58;76.11;101450.16;4984324;28;20038;-63
2023/05/23 08:33:31;;;;;;;11.23;6.80;;;;;;;16.46;76.72;101459.13;4984100;28;20034;-62
2023/05/23 08:35:57;;;;;;;11.18;6.70;;;;;;;16.40;77.00;101459.25;4986500;28;20719;-61
2023/05/23 08:38:22;;;;;;;9.68;6.70;;;;;;;16.34;77.23;101459.38;4996150;28;20049;-63
2023/05/23 08:40:51;;;;;;;9.73;6.70;;;;;;;16.28;76.87;101465.59;4993068;28;21059;-62
2023/05/23 08:43:18;;;;;;;12.23;6.63;;;;;;;16.21;76.84;101463.13;4987742;28;20034;-61
2023/05/23 08:45:45;;;;;;;12.90;6.15;;;;;;;16.25;77.12;101468.25;4986821;28;20023;-62
2023/05/23 08:48:13;;;;;;;12.00;7.13;;;;;;;16.21;76.71;101463.97;4987302;28;20105;-62
2023/05/23 08:50:42;;;;;;;13.93;7.00;;;;;;;16.22;76.62;101470.06;4983949;28;20045;-62
2023/05/23 08:53:09;;;;;;;13.43;6.88;;;;;;;16.25;76.34;101468.25;4986745;28;20042;-63
2023/05/23 08:55:36;;;;;;;14.35;6.60;;;;;;;16.31;76.21;101464.66;4984017;28;20069;-62
2023/05/23 08:58:02;;;;;;;14.75;7.57;;;;;;;16.34;75.53;101467.22;4980413;28;20108;-62
2023/05/23 09:00:28;;;;;;;9.60;6.40;;;;;;;16.39;75.54;101462.75;4981670;28;20789;-62
2023/05/23 09:02:54;;;;;;;12.05;6.50;;;;;;;16.33;75.68;101475.91;4976401;28;20084;-64
2023/05/23 09:05:20;;;;;;;14.02;7.30;;;;;;;16.32;76.42;101489.88;4977276;28;20046;-64
2023/05/23 09:07:46;;;;;;;11.48;6.95;;;;;;;16.24;76.35;101479.56;4980823;28;20100;-64
2023/05/23 09:10:15;;;;;;;11.63;6.53;;;;;;;16.20;76.16;101477.94;4972096;28;20022;-64
2023/05/23 09:12:42;;;;;;;12.82;7.65;;;;;;;16.14;77.43;101493.72;4983762;28;20034;-64
2023/05/23 09:15:09;;;;;;;11.73;8.57;;;;;;;16.10;77.95;101496.38;4976378;28;20069;-64
2023/05/23 09:17:36;;;;;;;18.98;8.60;;;;;;;16.03;78.68;101498.25;4980373;28;20053;-64
2023/05/23 09:20:04;;;;;;;14.70;8.85;;;;;;;15.99;78.86;101511.38;4984185;28;20046;-64
2023/05/23 09:22:30;;;;;;;14.93;8.52;;;;;;;15.92;78.91;101497.59;4983819;28;20042;-65
2023/05/23 09:24:56;;;;;;;13.77;8.65;;;;;;;15.86;79.17;101507.28;4979448;28;20041;-64
2023/05/23 09:27:22;;;;;;;15.30;8.27;;;;;;;15.77;80.76;101510.91;4980239;28;20039;-64
2023/05/23 09:29:49;;;;;;;14.98;9.02;;;;;;;15.68;81.80;101517.16;4975451;28;20797;-65
2023/05/23 09:32:18;;;;;;;22.38;9.43;;;;;;;15.56;81.89;101514.72;4984572;28;20503;-64
2023/05/23 09:34:58;;;;;;;16.25;8.23;;;;;;;15.53;81.95;101517.38;4979522;28;20049;-64
2023/05/23 09:37:38;;;;;;;14.55;8.55;;;;;;;15.62;80.85;101517.25;4975400;28;20364;-64
2023/05/23 09:40:12;;;;;;;14.90;7.75;;;;;;;15.77;79.79;101513.53;4980284;28;20026;-65
2023/05/23 09:42:47;;;;;;;17.52;8.45;;;;;;;15.90;78.79;101509.81;4981322;28;20039;-65
2023/05/23 09:45:14;;;;;;;18.92;7.90;;;;;;;15.97;77.99;101500.97;4980634;28;20061;-65
2023/05/23 09:47:49;;;;;;;15.88;8.52;;;;;;;16.06;78.54;101510.38;4974873;28;20172;-65
2023/05/23 09:50:14;;;;;;;15.13;8.68;;;;;;;16.16;78.50;101504.97;4975988;28;20066;-65
2023/05/23 09:52:39;;;;;;;15.68;9.15;;;;;;;16.17;78.20;101501.47;4981345;28;20034;-64
2023/05/23 09:55:05;;;;;;;16.02;8.77;;;;;;;16.19;78.10;101510.13;4982994;28;20036;-64
2023/05/23 09:57:34;;;;;;;17.90;8.77;;;;;;;16.15;78.00;101518.03;4983033;28;20030;-63
2023/05/23 10:00:01;;;;;;;23.60;8.90;;;;;;;16.00;78.76;101513.97;4979664;28;20581;-63
2023/05/23 10:02:41;;;;;;;16.05;8.93;;;;;;;15.89;79.56;101526.34;4977190;28;20049;-64
2023/05/23 10:05:13;;;;;;;13.50;7.63;;;;;;;15.75;79.70;101525.72;4984084;28;20042;-64
2023/05/23 10:07:39;;;;;;;15.82;7.57;;;;;;;15.59;80.23;101534.66;4985002;28;20042;-64
2023/05/23 10:10:09;;;;;;;16.27;7.80;;;;;;;15.53;80.53;101537.34;4976721;28;20042;-64
2023/05/23 10:12:42;;;;;;;18.77;8.48;;;;;;;15.50;80.62;101537.41;4980449;28;20034;-64
2023/05/23 10:15:09;;;;;;;17.92;9.02;;;;;;;15.52;79.99;101533.88;4976978;28;20086;-65
2023/05/23 10:18:02;;;;;;;19.45;8.65;;;;;;;15.56;80.48;101540.78;4977322;28;20699;-65
2023/05/23 10:20:32;;;;;;;15.43;9.07;;;;;;;15.57;79.87;101545.13;4981839;28;20160;-64
2023/05/23 10:23:04;;;;;;;16.98;8.32;;;;;;;15.55;80.38;101539.03;4979911;28;20042;-64
2023/05/23 10:25:29;;;;;;;14.27;8.40;;;;;;;15.52;80.31;101540.88;4980010;28;20046;-64
2023/05/23 10:28:00;;;;;;;17.10;8.57;;;;;;;15.39;80.21;101545.41;4983499;28;20030;-67
2023/05/23 10:30:27;;;;;;;14.07;8.18;;;;;;;15.32;80.98;101551.59;4971937;28;20046;-64
2023/05/23 10:32:54;;;;;;;19.58;8.57;;;;;;;15.33;80.91;101553.31;4979149;28;20045;-65
2023/05/23 10:35:41;;;;;;;15.45;8.02;;;;;;;15.34;80.72;101560.25;4978713;28;20057;-64
2023/05/23 10:38:23;;;;;;;17.77;8.60;;;;;;;15.36;79.99;101548.06;4978869;28;20038;-64
2023/05/23 10:41:01;;;;;;;16.13;8.02;;;;;;;15.41;79.54;101550.56;4979373;28;20052;-64
2023/05/23 10:43:39;;;;;;;18.95;8.52;;;;;;;15.56;79.59;101550.34;4974335;28;20034;-64
2023/05/23 10:46:08;;;;;;;14.63;8.68;;;;;;;15.68;78.72;101548.44;4976236;28;20104;-63
2023/05/23 10:48:39;;;;;;;20.77;8.75;;;;;;;15.79;77.52;101548.22;4979758;28;20045;-65
2023/05/23 10:51:07;;;;;;;14.13;7.25;;;;;;;15.68;77.87;101553.63;4980745;28;20038;-64
2023/05/23 10:53:37;;;;;;;19.55;7.70;;;;;;;15.70;77.94;101541.44;4979694;28;20057;-65
2023/05/23 10:56:10;;;;;;;16.70;7.85;;;;;;;15.90;77.37;101540.25;4975365;28;20429;-65
2023/05/23 10:58:38;;;;;;;17.55;8.05;;;;;;;16.27;75.00;101526.47;4984598;28;20085;-65
2023/05/23 11:01:15;;;;;;;19.60;8.30;;;;;;;16.67;73.44;101521.31;4974984;28;20026;-66
2023/05/23 11:03:47;;;;;;;17.67;8.75;;;;;;;16.98;71.85;101505.00;4974901;28;20266;-64
2023/05/23 11:06:31;;;;;;;14.43;8.00;;;;;;;17.04;70.93;101504.88;4974881;28;20072;-65
2023/05/23 11:09:10;;;;;;;15.50;8.57;;;;;;;17.42;69.26;101492.56;4977687;28;20042;-65
2023/05/23 11:11:48;;;;;;;15.32;9.02;;;;;;;17.92;67.15;101473.00;4973699;28;20051;-65
2023/05/23 11:14:13;;;;;;;13.07;7.95;;;;;;;18.27;65.19;101440.59;4971715;28;20039;-63
2023/05/23 11:16:40;;;;;;;16.45;10.35;;;;;;;18.60;63.45;101425.66;4978855;28;20072;-64